createdAt,value
2017-08-16T00:00:29.205Z,19.00
2017-08-16T00:02:57.292Z,19.00
2017-08-16T00:05:29.065Z,19.00
2017-08-16T00:07:57.154Z,19.00
2017-08-16T00:10:25.249Z,18.90
2017-08-16T00:12:53.342Z,18.90
2017-08-16T00:15:21.452Z,18.90
2017-08-16T00:17:49.536Z,18.80
2017-08-16T00:20:17.642Z,18.80
2017-08-16T00:22:45.720Z,18.80
2017-08-16T00:25:13.850Z,18.70
2017-08-16T00:27:41.933Z,18.70
2017-08-16T00:30:10.033Z,18.70
2017-08-16T00:32:38.148Z,18.70
2017-08-16T00:35:06.245Z,18.70
2017-08-16T00:37:34.329Z,18.70
2017-08-16T00:40:03.349Z,18.70
2017-08-16T00:42:31.520Z,18.60
2017-08-16T00:44:59.602Z,18.60
2017-08-16T00:47:27.697Z,18.60
2017-08-16T00:49:56.562Z,18.60
2017-08-16T00:52:24.677Z,18.60
2017-08-16T00:54:52.759Z,18.60
2017-08-16T00:57:20.875Z,18.70
2017-08-16T00:59:48.994Z,18.60
2017-08-16T01:02:17.088Z,18.60
2017-08-16T01:04:45.195Z,18.60
2017-08-16T01:07:16.915Z,18.60
2017-08-16T01:09:45.045Z,18.50
2017-08-16T01:12:16.148Z,18.50
2017-08-16T01:14:44.248Z,18.60
2017-08-16T01:17:12.355Z,18.60
2017-08-16T01:19:40.452Z,18.50
2017-08-16T01:22:08.564Z,18.50
2017-08-16T01:24:36.653Z,18.60
2017-08-16T01:27:04.750Z,18.50
2017-08-16T01:29:32.850Z,18.50
2017-08-16T01:32:01.416Z,18.50
2017-08-16T01:34:32.681Z,18.40
2017-08-16T01:37:00.780Z,18.40
2017-08-16T01:39:28.882Z,18.40
2017-08-16T01:41:56.976Z,18.40
2017-08-16T01:44:25.078Z,18.40
2017-08-16T01:46:53.203Z,18.30
2017-08-16T01:49:22.096Z,18.30
2017-08-16T01:51:50.978Z,18.20
2017-08-16T01:54:19.820Z,18.20
2017-08-16T01:56:47.942Z,18.20
2017-08-16T01:59:16.775Z,18.20
2017-08-16T02:01:44.881Z,18.30
2017-08-16T02:04:12.980Z,18.30
2017-08-16T02:06:41.824Z,18.40
2017-08-16T02:09:09.926Z,18.30
2017-08-16T02:11:38.040Z,18.30
2017-08-16T02:14:06.155Z,18.30
2017-08-16T02:16:34.272Z,18.30
2017-08-16T02:19:03.264Z,18.30
2017-08-16T02:21:31.368Z,18.40
2017-08-16T02:23:59.458Z,18.40
2017-08-16T02:26:27.564Z,18.30
2017-08-16T02:28:56.437Z,18.30
2017-08-16T02:31:24.584Z,18.40
2017-08-16T02:33:52.661Z,18.40
2017-08-16T02:36:20.770Z,18.30
2017-08-16T02:38:48.852Z,18.30
2017-08-16T02:41:17.708Z,18.40
2017-08-16T02:43:45.815Z,18.30
2017-08-16T02:46:15.438Z,18.30
2017-08-16T02:48:43.584Z,18.40
2017-08-16T02:51:11.691Z,18.40
2017-08-16T02:53:39.786Z,18.40
2017-08-16T02:56:07.872Z,18.40
2017-08-16T02:58:35.984Z,18.40
2017-08-16T03:01:04.829Z,18.40
2017-08-16T03:03:32.952Z,18.40
2017-08-16T03:06:01.812Z,18.30
2017-08-16T03:08:29.907Z,18.30
2017-08-16T03:10:58.001Z,18.30
2017-08-16T03:13:26.107Z,18.30
2017-08-16T03:15:54.226Z,18.30
2017-08-16T03:18:22.315Z,18.20
2017-08-16T03:20:50.425Z,18.10
2017-08-16T03:23:18.527Z,18.10
2017-08-16T03:25:46.630Z,18.10
2017-08-16T03:28:14.736Z,18.20
2017-08-16T03:30:42.812Z,18.20
2017-08-16T03:33:10.908Z,18.20
2017-08-16T03:35:39.012Z,18.20
2017-08-16T03:38:07.101Z,18.10
2017-08-16T03:40:35.220Z,18.10
2017-08-16T03:43:03.296Z,18.10
2017-08-16T03:45:31.402Z,18.10
2017-08-16T03:47:59.488Z,18.10
2017-08-16T03:50:27.605Z,18.20
2017-08-16T03:52:55.704Z,18.20
2017-08-16T03:55:23.805Z,18.20
2017-08-16T03:57:53.841Z,18.20
2017-08-16T04:00:22.212Z,18.30
2017-08-16T04:02:56.226Z,18.20
2017-08-16T04:05:24.340Z,18.20
2017-08-16T04:07:56.091Z,18.10
2017-08-16T04:10:24.182Z,18.20
2017-08-16T04:12:52.295Z,18.20
2017-08-16T04:15:20.411Z,18.10
2017-08-16T04:17:48.536Z,18.10
2017-08-16T04:20:16.639Z,18.20
2017-08-16T04:22:44.724Z,18.20
2017-08-16T04:25:12.813Z,18.10
2017-08-16T04:27:40.963Z,18.10
2017-08-16T04:30:09.072Z,18.10
2017-08-16T04:32:37.945Z,18.10
2017-08-16T04:35:06.038Z,18.10
2017-08-16T04:37:34.899Z,18.10
2017-08-16T04:40:02.983Z,18.00
2017-08-16T04:42:31.108Z,18.00
2017-08-16T04:44:59.200Z,18.00
2017-08-16T04:47:27.279Z,18.00
2017-08-16T04:49:55.409Z,17.90
2017-08-16T04:52:23.526Z,17.90
2017-08-16T04:54:51.627Z,17.90
2017-08-16T04:57:20.495Z,17.90
2017-08-16T04:59:48.614Z,17.90
2017-08-16T05:02:16.723Z,17.90
2017-08-16T05:04:44.825Z,18.00
2017-08-16T05:07:12.927Z,17.90
2017-08-16T05:09:41.032Z,17.90
2017-08-16T05:12:09.150Z,17.90
2017-08-16T05:14:37.225Z,17.90
2017-08-16T05:17:06.117Z,17.90
2017-08-16T05:19:34.206Z,17.90
2017-08-16T05:22:02.308Z,17.90
2017-08-16T05:24:30.427Z,18.00
2017-08-16T05:27:01.955Z,18.00
2017-08-16T05:29:30.184Z,17.90
2017-08-16T05:31:59.220Z,18.00
2017-08-16T05:34:27.324Z,18.00
2017-08-16T05:36:55.417Z,18.00
2017-08-16T05:39:23.535Z,18.00
2017-08-16T05:41:51.631Z,18.00
2017-08-16T05:44:19.727Z,18.00
2017-08-16T05:46:47.824Z,17.90
2017-08-16T05:49:15.918Z,17.90
2017-08-16T05:51:44.014Z,17.90
2017-08-16T05:54:12.115Z,17.90
2017-08-16T05:56:40.224Z,18.00
2017-08-16T05:59:08.328Z,18.00
2017-08-16T06:01:36.440Z,18.10
2017-08-16T06:04:04.563Z,18.10
2017-08-16T06:06:32.643Z,18.10
2017-08-16T06:09:00.750Z,18.10
2017-08-16T06:11:28.855Z,18.20
2017-08-16T06:13:56.987Z,18.30
2017-08-16T06:16:25.155Z,18.20
2017-08-16T06:18:54.023Z,18.20
2017-08-16T06:21:22.123Z,18.30
2017-08-16T06:23:50.243Z,18.30
2017-08-16T06:26:21.783Z,18.30
2017-08-16T06:28:53.435Z,18.30
2017-08-16T06:31:21.540Z,18.30
2017-08-16T06:33:49.647Z,18.30
2017-08-16T06:36:18.536Z,18.40
2017-08-16T06:38:46.633Z,18.40
2017-08-16T06:41:15.495Z,18.40
2017-08-16T06:43:43.644Z,18.50
2017-08-16T06:46:11.720Z,18.40
2017-08-16T06:48:39.819Z,18.50
2017-08-16T06:51:07.964Z,18.50
2017-08-16T06:53:36.055Z,18.60
2017-08-16T06:56:04.159Z,18.70
2017-08-16T06:58:32.243Z,18.80
2017-08-16T07:01:00.348Z,18.80
2017-08-16T07:03:28.458Z,18.90
2017-08-16T07:05:56.527Z,18.90
2017-08-16T07:08:24.611Z,18.90
2017-08-16T07:10:52.723Z,18.90
2017-08-16T07:13:20.827Z,18.90
2017-08-16T07:15:48.927Z,18.90
2017-08-16T07:18:17.779Z,19.00
2017-08-16T07:20:45.859Z,18.90
2017-08-16T07:23:13.964Z,18.90
2017-08-16T07:25:45.698Z,18.90
2017-08-16T07:28:14.110Z,18.80
2017-08-16T07:30:42.225Z,18.70
2017-08-16T07:33:10.318Z,18.70
2017-08-16T07:35:38.415Z,18.70
2017-08-16T07:38:07.259Z,18.80
2017-08-16T07:40:35.343Z,18.80
2017-08-16T07:43:03.450Z,18.80
2017-08-16T07:45:32.324Z,18.80
2017-08-16T07:48:00.417Z,18.90
2017-08-16T07:50:33.525Z,19.00
2017-08-16T07:53:01.615Z,19.00
2017-08-16T07:55:29.695Z,19.10
2017-08-16T07:57:57.822Z,19.20
2017-08-16T08:00:26.674Z,19.30
2017-08-16T08:02:54.781Z,19.50
2017-08-16T08:05:22.894Z,19.60
2017-08-16T08:07:50.975Z,19.70
2017-08-16T08:10:19.063Z,19.80
2017-08-16T08:12:47.157Z,19.80
2017-08-16T08:15:16.059Z,19.80
2017-08-16T08:17:44.184Z,20.00
2017-08-16T08:20:12.280Z,20.00
2017-08-16T08:22:40.399Z,20.00
2017-08-16T08:25:08.488Z,20.00
2017-08-16T08:27:36.617Z,19.90
2017-08-16T08:30:04.735Z,19.90
2017-08-16T08:32:32.830Z,19.80
2017-08-16T08:35:00.939Z,19.70
2017-08-16T08:37:29.819Z,19.70
2017-08-16T08:39:57.907Z,19.60
2017-08-16T08:42:26.790Z,19.50
2017-08-16T08:44:55.684Z,19.50
2017-08-16T08:47:24.538Z,19.50
2017-08-16T08:49:52.643Z,19.40
2017-08-16T08:52:22.348Z,19.40
2017-08-16T08:54:50.459Z,19.40
2017-08-16T08:57:18.545Z,19.40
2017-08-16T08:59:46.648Z,19.40
2017-08-16T09:02:14.735Z,19.40
2017-08-16T09:04:42.841Z,19.40
2017-08-16T09:07:10.925Z,19.40
2017-08-16T09:09:39.034Z,19.40
2017-08-16T09:12:07.119Z,19.50
2017-08-16T09:14:35.226Z,19.40
2017-08-16T09:17:03.323Z,19.50
2017-08-16T09:19:31.436Z,19.60
2017-08-16T09:21:59.534Z,19.60
2017-08-16T09:24:27.611Z,19.60
2017-08-16T09:26:55.735Z,19.70
2017-08-16T09:29:23.835Z,19.70
2017-08-16T09:31:51.959Z,19.70
2017-08-16T09:34:20.068Z,19.80
2017-08-16T09:36:48.176Z,19.80
2017-08-16T09:39:16.311Z,19.80
2017-08-16T09:41:44.397Z,19.80
2017-08-16T09:44:12.503Z,19.90
2017-08-16T09:46:41.514Z,19.80
2017-08-16T09:49:09.619Z,19.80
2017-08-16T09:51:37.741Z,19.80
2017-08-16T09:54:05.864Z,19.80
2017-08-16T09:56:33.959Z,19.80
2017-08-16T09:59:02.087Z,19.80
2017-08-16T10:01:30.188Z,19.80
2017-08-16T10:03:58.276Z,19.90
2017-08-16T10:06:27.156Z,19.90
2017-08-16T10:08:59.451Z,19.90
2017-08-16T10:11:27.591Z,20.00
2017-08-16T10:13:58.931Z,20.00
2017-08-16T10:16:27.028Z,20.10
2017-08-16T10:18:55.892Z,20.10
2017-08-16T10:21:27.326Z,20.20
2017-08-16T10:23:55.412Z,20.30
2017-08-16T10:26:23.530Z,20.40
2017-08-16T10:28:51.659Z,20.50
2017-08-16T10:31:19.747Z,20.60
2017-08-16T10:33:47.855Z,20.70
2017-08-16T10:36:15.939Z,20.80
2017-08-16T10:38:44.056Z,20.90
2017-08-16T10:41:12.143Z,21.00
2017-08-16T10:43:40.219Z,21.10
2017-08-16T10:46:08.324Z,21.10
2017-08-16T10:48:36.435Z,21.10
2017-08-16T10:51:07.735Z,21.00
2017-08-16T10:53:35.843Z,21.10
2017-08-16T10:56:03.947Z,21.10
2017-08-16T10:58:32.034Z,21.10
2017-08-16T11:01:00.193Z,20.90
2017-08-16T11:03:29.324Z,20.90
2017-08-16T11:05:57.446Z,21.00
2017-08-16T11:08:25.548Z,21.10
2017-08-16T11:10:53.636Z,21.20
2017-08-16T11:13:21.736Z,21.30
2017-08-16T11:15:49.834Z,21.40
2017-08-16T11:18:17.944Z,21.50
2017-08-16T11:20:46.799Z,21.60
2017-08-16T11:23:14.910Z,21.70
2017-08-16T11:25:43.763Z,21.60
2017-08-16T11:28:11.867Z,21.50
2017-08-16T11:30:40.734Z,21.50
2017-08-16T11:33:08.822Z,21.50
2017-08-16T11:35:37.832Z,21.40
2017-08-16T11:38:05.923Z,21.50
2017-08-16T11:40:34.040Z,21.50
2017-08-16T11:43:02.170Z,21.60
2017-08-16T11:45:30.276Z,21.80
2017-08-16T11:47:58.363Z,21.90
2017-08-16T11:50:26.473Z,21.90
2017-08-16T11:52:54.573Z,21.80
2017-08-16T11:55:22.675Z,21.70
2017-08-16T11:57:50.779Z,21.80
2017-08-16T12:00:18.886Z,21.90
2017-08-16T12:02:46.996Z,22.10
2017-08-16T12:05:15.066Z,22.20
2017-08-16T12:07:43.164Z,22.20
2017-08-16T12:10:11.276Z,22.30
2017-08-16T12:12:39.404Z,22.40
2017-08-16T12:15:07.501Z,22.50
2017-08-16T12:17:35.596Z,22.50
2017-08-16T12:20:03.702Z,22.70
2017-08-16T12:22:31.821Z,22.90
2017-08-16T12:24:59.906Z,23.10
2017-08-16T12:27:29.910Z,23.30
2017-08-16T12:29:58.012Z,23.50
2017-08-16T12:32:26.302Z,23.60
2017-08-16T12:34:54.387Z,23.80
2017-08-16T12:37:22.455Z,24.10
2017-08-16T12:39:50.565Z,24.10
2017-08-16T12:42:18.672Z,24.10
2017-08-16T12:44:46.768Z,24.20
2017-08-16T12:47:14.864Z,24.20
2017-08-16T12:49:44.806Z,24.30
2017-08-16T12:52:12.910Z,24.50
2017-08-16T12:54:41.011Z,24.50
2017-08-16T12:57:09.117Z,24.20
2017-08-16T12:59:37.259Z,24.30
2017-08-16T13:02:05.364Z,24.10
2017-08-16T13:04:33.441Z,24.10
2017-08-16T13:07:01.540Z,23.90
2017-08-16T13:09:29.647Z,23.90
2017-08-16T13:11:57.719Z,23.80
2017-08-16T13:14:25.840Z,23.50
2017-08-16T13:16:53.918Z,23.50
2017-08-16T13:19:22.029Z,23.50
2017-08-16T13:21:50.107Z,23.60
2017-08-16T13:24:18.235Z,23.80
2017-08-16T13:26:46.337Z,23.60
2017-08-16T13:29:14.440Z,23.70
2017-08-16T13:31:43.316Z,23.80
2017-08-16T13:34:11.413Z,23.90
2017-08-16T13:36:41.115Z,24.00
2017-08-16T13:39:10.111Z,24.20
2017-08-16T13:41:38.967Z,24.20
2017-08-16T13:44:07.072Z,24.20
2017-08-16T13:46:35.148Z,24.20
2017-08-16T13:49:03.243Z,24.40
2017-08-16T13:51:31.324Z,24.40
2017-08-16T13:53:59.430Z,24.30
2017-08-16T13:56:28.551Z,24.30
2017-08-16T13:58:56.629Z,24.20
2017-08-16T14:01:24.720Z,24.00
2017-08-16T14:03:52.866Z,23.80
2017-08-16T14:06:22.009Z,23.70
2017-08-16T14:08:50.104Z,23.70
2017-08-16T14:11:18.229Z,23.70
2017-08-16T14:13:47.139Z,23.70
2017-08-16T14:16:15.226Z,23.60
2017-08-16T14:18:43.363Z,23.60
2017-08-16T14:21:11.479Z,23.70
2017-08-16T14:23:39.566Z,23.60
2017-08-16T14:26:07.647Z,23.50
2017-08-16T14:28:35.747Z,23.40
2017-08-16T14:31:04.615Z,23.20
2017-08-16T14:33:32.723Z,23.10
2017-08-16T14:36:00.821Z,23.00
2017-08-16T14:38:28.944Z,23.00
2017-08-16T14:40:57.787Z,23.00
2017-08-16T14:43:25.910Z,23.00
2017-08-16T14:45:54.020Z,23.00
2017-08-16T14:48:22.135Z,23.20
2017-08-16T14:50:50.269Z,23.30
2017-08-16T14:53:19.259Z,23.30
2017-08-16T14:55:47.386Z,23.30
2017-08-16T14:58:15.474Z,23.20
2017-08-16T15:00:44.500Z,23.20
2017-08-16T15:03:12.603Z,23.20
2017-08-16T15:05:40.705Z,23.10
2017-08-16T15:08:08.806Z,23.10
2017-08-16T15:10:36.887Z,23.10
2017-08-16T15:13:05.024Z,23.10
2017-08-16T15:15:33.097Z,23.10
2017-08-16T15:18:01.187Z,23.10
2017-08-16T15:20:29.294Z,23.20
2017-08-16T15:22:57.395Z,23.30
2017-08-16T15:25:25.520Z,23.30
2017-08-16T15:27:53.624Z,23.40
2017-08-16T15:30:21.713Z,23.40
2017-08-16T15:32:49.843Z,23.40
2017-08-16T15:35:17.943Z,23.30
2017-08-16T15:37:46.063Z,23.20
2017-08-16T15:40:14.905Z,23.00
2017-08-16T15:42:43.004Z,22.90
2017-08-16T15:45:11.115Z,22.80
2017-08-16T15:47:39.595Z,22.70
2017-08-16T15:50:07.673Z,22.70
2017-08-16T15:52:35.904Z,22.60
2017-08-16T15:55:07.456Z,22.60
2017-08-16T16:00:14.350Z,22.60
2017-08-16T16:02:51.421Z,22.60
2017-08-16T16:05:19.552Z,22.60
2017-08-16T16:07:48.380Z,22.60
2017-08-16T16:10:17.202Z,22.60
2017-08-16T16:12:51.694Z,22.60
2017-08-16T16:15:19.782Z,22.60
2017-08-16T16:17:47.899Z,22.70
2017-08-16T16:20:16.278Z,22.70
2017-08-16T16:22:44.445Z,22.90
2017-08-16T16:25:12.597Z,23.10
2017-08-16T16:27:41.064Z,23.40
2017-08-16T16:30:14.959Z,23.50
2017-08-16T16:32:43.176Z,23.80
2017-08-16T16:35:11.343Z,24.00
2017-08-16T16:37:39.505Z,24.10
2017-08-16T16:40:08.376Z,23.90
2017-08-16T16:42:36.476Z,23.70
2017-08-16T16:45:05.125Z,23.50
2017-08-16T16:47:34.201Z,23.30
2017-08-16T16:50:02.796Z,23.20
2017-08-16T16:52:34.595Z,23.00
2017-08-16T16:55:02.709Z,22.90
2017-08-16T16:57:31.199Z,22.80
2017-08-16T17:00:02.152Z,22.70
2017-08-16T17:02:30.577Z,22.60
2017-08-16T17:04:59.575Z,22.60
2017-08-16T17:07:27.696Z,22.60
2017-08-16T17:09:55.814Z,22.70
2017-08-16T17:12:24.004Z,22.60
2017-08-16T17:14:52.117Z,22.60
2017-08-16T17:17:21.039Z,22.50
2017-08-16T17:19:50.520Z,22.50
2017-08-16T17:22:29.228Z,22.40
2017-08-16T17:24:59.055Z,22.40
2017-08-16T17:27:29.472Z,22.40
2017-08-16T17:29:57.584Z,22.30
2017-08-16T17:32:26.458Z,22.30
2017-08-16T17:34:55.766Z,22.30
2017-08-16T17:37:23.974Z,22.20
2017-08-16T17:39:52.105Z,22.20
2017-08-16T17:42:22.019Z,22.10
2017-08-16T17:44:50.152Z,22.10
2017-08-16T17:47:21.487Z,22.00
2017-08-16T17:49:50.548Z,22.00
2017-08-16T17:52:19.415Z,22.00
2017-08-16T17:54:52.808Z,21.90
2017-08-16T17:57:21.708Z,21.90
2017-08-16T17:59:50.601Z,21.80
2017-08-16T18:02:18.755Z,21.80
2017-08-16T18:04:46.861Z,21.70
2017-08-16T18:07:14.962Z,21.70
2017-08-16T18:09:43.059Z,21.70
2017-08-16T18:12:11.180Z,21.70
2017-08-16T18:14:39.291Z,21.70
2017-08-16T18:17:10.465Z,21.70
2017-08-16T18:19:38.768Z,21.60
2017-08-16T18:22:06.996Z,21.60
2017-08-16T18:24:37.224Z,21.60
2017-08-16T18:27:05.338Z,21.50
2017-08-16T18:29:33.483Z,21.50
2017-08-16T18:32:01.573Z,21.40
2017-08-16T18:34:29.655Z,21.40
2017-08-16T18:36:57.763Z,21.40
2017-08-16T18:39:25.893Z,21.40
2017-08-16T18:41:53.986Z,21.20
2017-08-16T18:44:22.078Z,21.10
2017-08-16T18:46:50.185Z,21.10
2017-08-16T18:49:18.518Z,21.10
2017-08-16T18:51:46.706Z,21.10
2017-08-16T18:54:17.925Z,21.10
2017-08-16T18:56:47.804Z,21.10
2017-08-16T18:59:16.130Z,21.10
2017-08-16T19:01:45.036Z,21.00
2017-08-16T19:04:13.155Z,21.00
2017-08-16T19:06:41.273Z,21.00
2017-08-16T19:09:09.390Z,21.00
2017-08-16T19:11:37.464Z,21.00
2017-08-16T19:14:05.567Z,21.00
2017-08-16T19:16:33.655Z,20.90
2017-08-16T19:19:01.739Z,21.00
2017-08-16T19:21:30.529Z,20.80
2017-08-16T19:23:58.643Z,20.80
2017-08-16T19:26:26.722Z,20.70
2017-08-16T19:28:54.844Z,20.70
2017-08-16T19:31:23.543Z,20.70
2017-08-16T19:33:51.720Z,20.70
2017-08-16T19:36:19.803Z,20.60
2017-08-16T19:38:49.275Z,20.70
2017-08-16T19:41:17.384Z,20.60
2017-08-16T19:43:45.495Z,20.60
2017-08-16T19:46:13.689Z,20.60
2017-08-16T19:48:51.458Z,20.60
2017-08-16T19:51:19.603Z,20.50
2017-08-16T19:53:47.751Z,20.50
2017-08-16T19:56:15.873Z,20.50
2017-08-16T19:58:45.590Z,20.50
2017-08-16T20:01:13.780Z,20.50
2017-08-16T20:03:42.539Z,20.40
2017-08-16T20:06:14.032Z,20.40
2017-08-16T20:08:49.699Z,20.40
2017-08-16T20:11:17.808Z,20.40
2017-08-16T20:13:45.942Z,20.40
2017-08-16T20:16:15.906Z,20.40
2017-08-16T20:18:47.688Z,20.40
2017-08-16T20:21:17.372Z,20.40
2017-08-16T20:23:45.556Z,20.30
2017-08-16T20:26:17.395Z,20.20
2017-08-16T20:28:46.533Z,20.20
2017-08-16T20:31:15.300Z,20.20
2017-08-16T20:33:43.489Z,20.00
2017-08-16T20:36:13.195Z,20.10
2017-08-16T20:38:41.388Z,20.10
2017-08-16T20:41:09.552Z,20.10
2017-08-16T20:43:37.691Z,20.10
2017-08-16T20:46:07.883Z,20.10
2017-08-16T20:48:36.003Z,20.00
2017-08-16T20:51:04.123Z,20.10
2017-08-16T20:53:32.216Z,20.00
2017-08-16T20:56:00.420Z,20.00
2017-08-16T20:58:31.745Z,20.00
2017-08-16T21:00:59.852Z,20.00
2017-08-16T21:03:27.976Z,20.00
2017-08-16T21:05:56.355Z,20.00
2017-08-16T21:08:24.920Z,19.90
2017-08-16T21:10:53.065Z,19.90
2017-08-16T21:13:21.186Z,19.90
2017-08-16T21:15:49.328Z,19.90
2017-08-16T21:18:17.468Z,19.90
2017-08-16T21:20:45.551Z,19.90
2017-08-16T21:23:13.648Z,19.90
2017-08-16T21:25:41.755Z,19.90
2017-08-16T21:28:09.852Z,19.80
2017-08-16T21:30:37.976Z,19.70
2017-08-16T21:33:06.060Z,19.60
2017-08-16T21:35:34.187Z,19.60
2017-08-16T21:38:05.121Z,19.60
2017-08-16T21:40:33.293Z,19.60
2017-08-16T21:43:05.908Z,19.50
2017-08-16T21:45:34.024Z,19.50
2017-08-16T21:48:02.156Z,19.40
2017-08-16T21:50:30.420Z,19.30
2017-08-16T21:53:01.005Z,19.30
2017-08-16T21:55:36.154Z,19.30
2017-08-16T21:58:04.336Z,19.20
2017-08-16T22:00:32.507Z,19.10
2017-08-16T22:03:00.676Z,19.20
2017-08-16T22:05:28.823Z,19.20
2017-08-16T22:07:57.131Z,19.10
2017-08-16T22:10:27.163Z,19.00
2017-08-16T22:12:59.807Z,19.00
2017-08-16T22:15:27.991Z,18.90
2017-08-16T22:17:57.005Z,18.90
2017-08-16T22:20:25.132Z,18.90
2017-08-16T22:22:53.235Z,19.00
2017-08-16T22:25:21.343Z,19.00
2017-08-16T22:27:52.260Z,18.90
2017-08-16T22:30:20.350Z,18.80
2017-08-16T22:32:48.468Z,18.70
2017-08-16T22:35:17.496Z,18.70
2017-08-16T22:37:45.607Z,18.70
2017-08-16T22:40:15.907Z,18.70
2017-08-16T22:42:44.013Z,18.70
2017-08-16T22:45:12.123Z,18.60
2017-08-16T22:47:40.212Z,18.60
2017-08-16T22:50:08.307Z,18.50
2017-08-16T22:52:36.424Z,18.50
2017-08-16T22:55:08.057Z,18.50
2017-08-16T22:57:36.144Z,18.50
2017-08-16T23:00:04.265Z,18.50
2017-08-16T23:02:32.395Z,18.40
2017-08-16T23:05:03.594Z,18.40
2017-08-16T23:07:36.208Z,18.50
2017-08-16T23:10:08.007Z,18.50
2017-08-16T23:12:36.193Z,18.50
2017-08-16T23:15:04.311Z,18.50
2017-08-16T23:17:32.433Z,18.30
2017-08-16T23:20:04.040Z,18.40
2017-08-16T23:22:32.216Z,18.40
2017-08-16T23:25:01.067Z,18.40
2017-08-16T23:27:29.168Z,18.40
2017-08-16T23:29:57.264Z,18.30
2017-08-16T23:32:25.373Z,18.20
2017-08-16T23:34:54.245Z,18.10
2017-08-16T23:37:22.350Z,18.10
2017-08-16T23:39:51.363Z,18.00
2017-08-16T23:42:19.444Z,18.10
2017-08-16T23:44:47.552Z,18.10
2017-08-16T23:47:18.661Z,18.10
2017-08-16T23:49:46.762Z,18.10
2017-08-16T23:52:20.635Z,18.00
2017-08-16T23:54:48.737Z,18.10
2017-08-16T23:57:16.818Z,18.10
2017-08-16T23:59:44.922Z,18.00
